Aeroboteco Virtual Airline

Aeroboteco Virtual Airlines! Uma nuvem a frente.



 INFORMAÇÕES METEOROLÓGICAS
METAR FOR TFFR
ADDS - METARS form results

(1150 UTC 21 January 2019)
Data provider http://aviationweather.gov/metar/data/
 
METAR text: TFFR 211130Z AUTO VRB02KT 9999 FEW035 BKN044 BKN052 24/21 Q1018
Conditions at: TFFR (LE RAIZET , GP) observed 1130 UTC 21 January 2019
Temperature: 24.0°C (75°F)
Dewpoint: 21.0°C (70°F) [RH = 83%]
Pressure (altimeter): 30.06 inches Hg (1018.0 mb)
Winds: variable direction winds at 2 MPH (2 knots; 1.0 m/s)
Visibility: 6 or more miles (10+ km)
Ceiling: 4400 feet AGL
Clouds: few clouds at 3500 feet AGL
broken clouds at 4400 feet AGL
broken clouds at 5200 feet AGL
Weather: no significant weather observed at this time

METAR text: TFFR 211100Z AUTO 12006KT 9999 SCT026/// BKN068/// BKN078/// ///TCU 23/20 Q1018 TEMPO 4000 SHRA BECMG SCT030
Conditions at: TFFR (LE RAIZET , GP) observed 1100 UTC 21 January 2019
Temperature: 23.0°C (73°F)
Dewpoint: 20.0°C (68°F) [RH = 83%]
Pressure (altimeter): 30.06 inches Hg (1018.0 mb)
Winds: from the ESE (120 degrees) at 7 MPH (6 knots; 3.1 m/s)
Visibility: 6 or more miles (10+ km)
Ceiling: 6800 feet AGL
Clouds: scattered clouds at 2600 feet AGL
broken clouds at 6800 feet AGL
broken clouds at 7800 feet AGL
Weather: no significant weather observed at this time

Forecast for: TFFR (LE RAIZET , GP)
Text: TAF TFFR 210400Z 2106/2206 11008KT 9999 SCT030
Forecast period: 0600 UTC 21 January 2019 to 0600 UTC 22 January 2019
Forecast type: FROM: standard forecast or significant change
Winds: from the ESE (110 degrees) at 9 MPH (8 knots; 4.1 m/s)
Visibility: 6 or more miles 10+ km)
Ceiling: at least 12,000 feet AGL
Clouds: scattered clouds at 3000 feet AGL
Weather: no significant weather forecast for this period
Text: PROB30
Forecast period: 0600 to 1800 UTC 21 January 2019
Forecast type: TEMPORARY: The following changes expected for less than half the time period
Visibility: 2.49 miles (4.01 km)
Ceiling: unknown
Clouds: missing
Weather: SHRA  (rain showers)

 MAPA DO AEROPORTO

 INFORMAÇÕES DA PISTA
Pista 12 Tamanho da pista 11499 ft Largura da pista 148 ft
Elevação da pista 5 ft Ranhura da pista 1312 ft Proa da pista 101
Pista 30 Tamanho da pista 11499 ft Largura da pista 148 ft
Elevação da pista 32 ft Ranhura da pista 820 ft Proa da pista 281

 FREQUÊNCIAS DO AEROPORTO
Tipo APP Nome RAIZET APP Frequência 121.3 MHZ
Tipo ATIS Nome ATIS Frequência 127.6 MHZ
Tipo GND Nome GND Frequência 121.85 MHZ
Tipo TWR Nome RAIZET TWR Frequência 118.4 MHZ

 AUXÍLIOS DE NAVEGAÇÃO PRÓXIMOS AO AEROPORTO
Tipo VOR-DME Nome Pointe A Pitre Frequência 112900 KHZ
Tipo NDB Nome Pointe A Pitre Frequência 385 KHZ